Time;durP1;ratioP1;P1;durP2;ratioP2;P2;SDS_P1;SDS_P2;PMS_P1;PMS_P2;Temp;Humidity;BMP_temperature;BMP_pressure;BME280_temperature;BME280_humidity;BME280_pressure;Samples;Min_cycle;Max_cycle;Signal;HPM_P1;HPM_P2
2021/08/11 00:00:25;;;;;;;;;2.67;2.67;;;;;21.83;55.47;101591.00;5098990;27;45367;-89
2021/08/11 00:02:51;;;;;;;;;1.00;1.00;;;;;21.80;55.98;101587.72;5061638;28;45372;-91
2021/08/11 00:05:16;;;;;;;;;3.00;3.00;;;;;21.75;55.71;101582.72;5079789;28;45372;-90
2021/08/11 00:07:42;;;;;;;;;2.67;2.67;;;;;21.79;55.67;101593.97;5062820;27;47257;-90
2021/08/11 00:10:08;;;;;;;;;2.00;2.00;;;;;21.75;55.79;101590.66;5092579;27;45339;-90
2021/08/11 00:12:34;;;;;;;;;3.00;3.00;;;;;21.72;55.89;101585.59;5081696;27;45419;-91
2021/08/11 00:14:59;;;;;;;;;2.00;2.00;;;;;21.66;55.81;101586.84;5099978;27;45272;-91
2021/08/11 00:17:25;;;;;;;;;3.00;3.00;;;;;21.65;56.22;101589.63;5080115;27;46949;-91
2021/08/11 00:19:51;;;;;;;;;3.00;2.33;;;;;21.57;56.31;101590.16;5100001;27;45435;-90
2021/08/11 00:22:17;;;;;;;;;1.00;1.00;;;;;21.56;56.53;101596.41;5077019;27;45329;-90
2021/08/11 00:24:42;;;;;;;;;1.67;1.00;;;;;21.49;56.45;101601.25;5098784;27;45284;-90
2021/08/11 00:27:08;;;;;;;;;2.00;2.00;;;;;21.46;56.57;101596.16;5097967;27;45532;-90
2021/08/11 00:29:34;;;;;;;;;3.00;3.00;;;;;21.42;57.01;101606.13;5081378;27;45320;-90
2021/08/11 00:31:59;;;;;;;;;3.00;3.00;;;;;21.38;56.64;101599.34;5099030;27;45465;-91
2021/08/11 00:34:27;;;;;;;;;1.67;1.67;;;;;21.38;56.50;101599.34;5098796;27;45391;-91
2021/08/11 00:36:53;;;;;;;;;1.33;1.33;;;;;21.34;56.63;101598.72;5099632;27;45737;-91
2021/08/11 00:39:19;;;;;;;;;3.00;3.00;;;;;21.35;57.10;101602.22;5065145;27;45729;-90
2021/08/11 00:41:45;;;;;;;;;2.67;2.67;;;;;21.36;56.78;101603.91;5069430;27;45241;-90
2021/08/11 00:44:11;;;;;;;;;3.00;3.00;;;;;21.35;57.13;101610.97;5078999;27;45432;-89
2021/08/11 00:46:45;;;;;;;;;2.00;2.00;;;;;21.32;57.27;101610.34;5078993;27;46532;-90
2021/08/11 00:49:13;;;;;;;;;1.33;1.33;;;;;21.33;57.15;101620.84;5067060;28;45397;-90
2021/08/11 00:51:39;;;;;;;;;2.00;2.00;;;;;21.30;57.38;101617.56;5063983;27;45482;-90
2021/08/11 00:54:06;;;;;;;;;2.00;2.00;;;;;21.32;57.41;101631.53;5099554;27;45395;-91
2021/08/11 00:56:34;;;;;;;;;2.00;2.00;;;;;21.29;57.07;101626.47;5098469;27;46408;-90
2021/08/11 00:59:01;;;;;;;;;3.67;3.33;;;;;21.27;57.33;101625.69;5078371;27;45411;-91
2021/08/11 01:01:30;;;;;;;;;4.00;3.00;;;;;21.29;57.75;101623.81;5087211;27;45406;-91
2021/08/11 01:03:57;;;;;;;;;1.67;1.67;;;;;21.26;57.36;101622.22;5083191;27;45438;-91
2021/08/11 01:06:24;;;;;;;;;3.00;3.00;;;;;21.28;57.75;101619.47;5060544;28;47125;-91
2021/08/11 01:08:51;;;;;;;;;3.00;3.00;;;;;21.24;57.56;101618.81;5079010;27;45513;-91
2021/08/11 01:11:18;;;;;;;;;4.00;4.00;;;;;21.20;58.07;101623.47;5075278;27;45562;-91
2021/08/11 01:13:45;;;;;;;;;2.00;2.00;;;;;21.20;58.40;101625.28;5079359;27;45331;-91
2021/08/11 01:16:10;;;;;;;;;2.33;2.00;;;;;21.23;58.05;101628.56;5080554;27;47456;-91
2021/08/11 01:18:36;;;;;;;;;3.00;3.00;;;;;21.19;57.99;101623.56;5098563;27;45388;-90
2021/08/11 01:21:29;;;;;;;;;2.67;2.00;;;;;21.21;58.22;101625.16;5073784;27;45535;-90
2021/08/11 01:24:07;;;;;;;;;3.00;2.00;;;;;21.20;58.33;101623.47;5060447;28;45428;-91
2021/08/11 01:26:50;;;;;;;;;3.33;2.67;;;;;21.19;58.34;101618.28;5078375;27;46409;-90
2021/08/11 01:29:19;;;;;;;;;3.00;3.00;;;;;21.15;57.87;101614.97;5059849;28;45944;-90
2021/08/11 01:32:02;;;;;;;;;5.67;3.00;;;;;21.15;58.00;101622.09;5069803;27;45306;-91
2021/08/11 01:34:46;;;;;;;;;2.33;2.33;;;;;21.09;58.24;101608.31;5087883;27;45377;-90
2021/08/11 01:37:18;;;;;;;;;3.00;3.00;;;;;21.04;57.96;101602.50;5080359;27;47630;-91
2021/08/11 01:39:48;;;;;;;;;3.33;2.67;;;;;21.01;58.49;101604.50;5073751;28;46345;-91
2021/08/11 01:42:17;;;;;;;;;2.00;2.00;;;;;20.95;58.56;101603.94;5060574;28;45424;-90
2021/08/11 01:45:02;;;;;;;;;3.00;3.00;;;;;20.91;58.55;101605.09;5078666;27;45338;-90
2021/08/11 01:47:34;;;;;;;;;3.00;3.00;;;;;20.87;58.53;101598.31;5078075;27;46489;-90
2021/08/11 01:50:00;;;;;;;;;2.00;1.67;;;;;20.84;58.56;101606.44;5059547;28;45353;-89
2021/08/11 01:52:27;;;;;;;;;3.33;3.33;;;;;20.77;58.57;101590.13;5069309;27;45516;-90
2021/08/11 01:54:53;;;;;;;;;3.00;3.00;;;;;20.73;58.79;101590.44;5095679;27;45306;-90
2021/08/11 01:57:19;;;;;;;;;2.00;2.00;;;;;20.70;58.76;101594.94;5094721;27;47055;-90
2021/08/11 01:59:46;;;;;;;;;4.00;4.00;;;;;20.63;58.78;101591.03;5097099;27;45534;-90
2021/08/11 02:02:14;;;;;;;;;2.00;2.00;;;;;20.61;58.42;101592.94;5084631;27;45374;-91
2021/08/11 02:04:40;;;;;;;;;4.00;3.00;;;;;20.54;58.26;101592.47;5060933;28;45282;-90
2021/08/11 02:07:05;;;;;;;;;3.00;3.00;;;;;20.50;58.70;101592.78;5059643;27;46974;-90
2021/08/11 02:09:31;;;;;;;;;2.00;2.00;;;;;20.46;58.91;101597.38;5059705;28;45386;-91
2021/08/11 02:11:56;;;;;;;;;2.00;2.00;;;;;20.40;58.66;101589.84;5059658;28;45296;-91
2021/08/11 02:14:23;;;;;;;;;3.67;3.67;;;;;20.38;58.75;101594.41;5068470;27;45558;-90
2021/08/11 02:16:48;;;;;;;;;4.33;2.00;;;;;20.30;58.90;101581.69;5080197;27;47140;-91
2021/08/11 02:19:14;;;;;;;;;5.00;3.00;;;;;20.29;59.02;101582.63;5080625;27;45457;-90
2021/08/11 02:21:40;;;;;;;;;3.00;3.00;;;;;20.26;59.19;101580.16;5078373;27;45366;-90
2021/08/11 02:24:10;;;;;;;;;1.67;1.67;;;;;20.20;59.06;101578.78;5059802;28;45403;-90
2021/08/11 02:26:59;;;;;;;;;4.33;3.00;;;;;20.18;59.31;101580.66;5059197;28;47215;-91
2021/08/11 02:29:58;;;;;;;;;3.00;3.00;;;;;20.11;59.41;101577.59;5059460;28;45923;-91
2021/08/11 02:32:44;;;;;;;;;2.67;2.67;;;;;20.07;59.35;101583.13;4975278;28;45520;-91
2021/08/11 02:35:29;;;;;;;;;2.67;2.67;;;;;20.05;59.31;101587.69;4959234;28;45291;-91
2021/08/11 02:38:07;;;;;;;;;4.00;3.00;;;;;19.99;59.16;101579.19;4988949;28;45485;-90
2021/08/11 02:40:37;;;;;;;;;3.00;2.67;;;;;19.95;59.17;101585.56;4977598;28;45288;-90
2021/08/11 02:43:33;;;;;;;;;2.33;2.33;;;;;19.92;59.65;101591.06;4955843;28;45370;-90
2021/08/11 02:46:13;;;;;;;;;4.33;4.00;;;;;19.87;59.69;101580.75;4956192;28;45463;-90
2021/08/11 02:48:39;;;;;;;;;2.00;2.00;;;;;19.81;59.63;101583.78;4970564;28;47153;-91
2021/08/11 02:51:08;;;;;;;;;2.67;2.33;;;;;19.82;59.73;101585.50;4994696;28;45456;-91
2021/08/11 02:53:34;;;;;;;;;3.00;2.00;;;;;19.77;59.87;101579.66;4994617;28;45390;-91
2021/08/11 02:56:00;;;;;;;;;1.67;1.67;;;;;19.72;59.94;101573.81;4981940;28;45366;-91
2021/08/11 02:58:26;;;;;;;;;3.00;3.00;;;;;19.70;60.00;101573.03;4978299;28;47259;-91
2021/08/11 03:00:53;;;;;;;;;3.00;3.00;;;;;19.67;59.95;101581.16;4993035;28;45777;-91
2021/08/11 03:03:20;;;;;;;;;2.00;2.00;;;;;19.63;60.26;101586.63;4995101;28;45494;-90
2021/08/11 03:05:46;;;;;;;;;3.00;3.00;;;;;19.56;60.03;101576.53;4982647;28;45477;-91
2021/08/11 03:08:12;;;;;;;;;2.00;2.00;;;;;19.54;60.34;101584.56;4978874;28;46095;-91
2021/08/11 03:10:39;;;;;;;;;3.00;3.00;;;;;19.52;60.16;101590.88;5067030;27;45276;-90
2021/08/11 03:13:06;;;;;;;;;2.33;2.00;;;;;19.50;60.17;101590.97;5101132;27;45153;-90
2021/08/11 03:15:33;;;;;;;;;4.00;4.00;;;;;19.48;60.27;101590.19;5076912;27;45405;-90
2021/08/11 03:18:02;;;;;;;;;2.00;2.00;;;;;19.45;60.51;101583.31;5079267;27;47557;-91
2021/08/11 03:20:27;;;;;;;;;3.00;3.00;;;;;19.43;60.64;101582.56;5062611;28;45500;-90
2021/08/11 03:22:53;;;;;;;;;3.00;2.67;;;;;19.38;60.60;101583.78;5062397;28;45461;-90
2021/08/11 03:25:18;;;;;;;;;2.33;2.33;;;;;19.33;60.35;101582.28;5086615;27;45360;-91
2021/08/11 03:27:44;;;;;;;;;3.00;3.00;;;;;19.34;60.81;101588.38;5064696;27;48315;-91
2021/08/11 03:30:10;;;;;;;;;4.00;3.00;;;;;19.31;60.86;101588.56;5068997;28;45421;-91
2021/08/11 03:32:35;;;;;;;;;3.00;3.00;;;;;19.28;60.52;101592.25;5081033;28;45281;-90
2021/08/11 03:35:00;;;;;;;;;4.33;4.00;;;;;19.27;60.76;101590.56;5067723;27;45427;-91
2021/08/11 03:37:26;;;;;;;;;3.33;3.33;;;;;19.24;60.93;101598.63;5072901;28;47303;-91
2021/08/11 03:39:51;;;;;;;;;3.67;3.67;;;;;19.22;60.74;101595.25;5065751;27;45486;-91
2021/08/11 03:42:17;;;;;;;;;2.00;2.00;;;;;19.17;61.00;101590.22;5066220;28;45340;-91
2021/08/11 03:44:42;;;;;;;;;3.00;3.00;;;;;19.18;60.99;101599.88;5062286;28;45476;-91
2021/08/11 03:47:08;;;;;;;;;3.67;3.67;;;;;19.17;61.53;101599.94;5061933;28;47379;-90
2021/08/11 03:49:33;;;;;;;;;2.00;2.00;;;;;19.15;61.38;101594.75;5081843;27;45541;-90
2021/08/11 03:51:59;;;;;;;;;4.00;3.00;;;;;19.12;61.38;101602.00;5091266;27;45071;-90
2021/08/11 03:54:24;;;;;;;;;2.67;2.67;;;;;19.12;61.48;101600.19;5074998;27;45429;-90
2021/08/11 03:56:49;;;;;;;;;3.00;3.00;;;;;19.12;61.71;101608.13;5074500;27;47477;-91
2021/08/11 03:59:15;;;;;;;;;4.67;4.00;;;;;19.13;61.75;101615.13;5061696;28;45661;-91
2021/08/11 04:01:40;;;;;;;;;3.00;3.00;;;;;19.11;61.93;101606.41;5062316;28;45403;-90
2021/08/11 04:04:06;;;;;;;;;4.00;4.00;;;;;19.12;62.28;101605.47;5079944;27;45424;-91
2021/08/11 04:06:31;;;;;;;;;3.67;3.67;;;;;19.15;62.51;101604.44;5061666;28;47210;-91
2021/08/11 04:08:57;;;;;;;;;7.00;5.00;;;;;19.18;62.06;101606.91;5079843;27;45615;-91
2021/08/11 04:11:22;;;;;;;;;4.67;3.67;;;;;19.18;62.22;101610.41;5061518;28;45371;-90
2021/08/11 04:13:47;;;;;;;;;4.00;4.00;;;;;19.20;62.25;101616.44;5061777;28;45504;-91
2021/08/11 04:16:13;;;;;;;;;4.33;4.00;;;;;19.22;62.66;101616.34;5074715;27;47073;-90
2021/08/11 04:18:38;;;;;;;;;2.00;2.00;;;;;19.23;62.72;101610.13;5080818;27;45525;-90
2021/08/11 04:21:04;;;;;;;;;3.00;3.00;;;;;19.26;62.40;101620.53;5080143;27;45440;-90
2021/08/11 04:23:29;;;;;;;;;3.33;3.33;;;;;19.26;62.45;101619.66;5098455;27;45275;-91
2021/08/11 04:25:55;;;;;;;;;6.00;6.00;;;;;19.27;62.28;101618.72;5100324;27;45493;-90
2021/08/11 04:28:21;;;;;;;;;4.33;4.00;;;;;19.28;62.21;101623.91;5081376;27;45304;-91
2021/08/11 04:30:46;;;;;;;;;1.00;1.00;;;;;19.26;62.63;101612.59;5092538;27;45284;-91
2021/08/11 04:33:12;;;;;;;;;3.00;3.00;;;;;19.30;62.50;101618.56;5079224;27;45222;-91
2021/08/11 04:35:38;;;;;;;;;4.00;4.00;;;;;19.29;62.07;101622.97;5099870;27;45372;-91
2021/08/11 04:38:04;;;;;;;;;4.67;4.67;;;;;19.31;62.49;101625.53;5079878;27;45519;-91
2021/08/11 04:40:33;;;;;;;;;5.00;5.00;;;;;19.27;62.46;101624.00;5061880;27;45417;-91
2021/08/11 04:42:59;;;;;;;;;5.00;4.00;;;;;19.29;62.49;101637.94;5069043;27;45612;-90
2021/08/11 04:45:24;;;;;;;;;3.00;3.00;;;;;19.26;62.77;101631.06;5081066;27;46809;-90
2021/08/11 04:47:49;;;;;;;;;5.00;3.33;;;;;19.28;62.37;101631.81;5081319;27;45756;-91
2021/08/11 04:50:15;;;;;;;;;5.00;4.00;;;;;19.28;62.37;101631.81;5081171;27;45753;-91
2021/08/11 04:52:41;;;;;;;;;4.00;4.00;;;;;19.24;62.57;101617.09;5068939;27;45463;-90
2021/08/11 04:55:07;;;;;;;;;5.00;4.00;;;;;19.26;62.60;101625.81;5079003;28;45389;-90
2021/08/11 04:57:33;;;;;;;;;3.67;3.67;;;;;19.26;62.36;101627.56;5060769;28;45338;-90
2021/08/11 04:59:59;;;;;;;;;3.00;3.00;;;;;19.23;62.34;101623.34;5060870;27;45350;-91
2021/08/11 05:02:25;;;;;;;;;4.00;4.00;;;;;19.21;62.04;101617.31;5062038;28;45389;-91
2021/08/11 05:04:50;;;;;;;;;4.00;4.00;;;;;19.22;62.21;101624.28;5074973;27;47313;-91
2021/08/11 05:07:15;;;;;;;;;4.00;4.00;;;;;19.21;62.45;101627.88;5085993;27;45331;-91
2021/08/11 05:09:41;;;;;;;;;4.33;4.33;;;;;19.19;62.72;101635.00;5061049;28;45395;-91
2021/08/11 05:12:06;;;;;;;;;7.00;5.00;;;;;19.18;62.83;101631.53;5061224;28;45353;-91
2021/08/11 05:14:35;;;;;;;;;5.33;4.33;;;;;19.16;62.48;101641.28;5064323;27;47210;-91
2021/08/11 05:17:00;;;;;;;;;4.67;4.67;;;;;19.13;62.65;101640.63;5093633;27;45453;-90
2021/08/11 05:19:26;;;;;;;;;5.00;5.00;;;;;19.11;62.71;101647.78;5080731;27;45080;-91
2021/08/11 05:21:52;;;;;;;;;4.67;4.33;;;;;19.15;62.72;101657.22;5081002;27;45347;-90
2021/08/11 05:24:18;;;;;;;;;4.00;4.00;;;;;19.12;62.41;101650.31;5088563;27;47793;-91
2021/08/11 05:26:45;;;;;;;;;5.00;5.00;;;;;19.13;63.01;101654.69;5078791;27;45235;-91
2021/08/11 05:29:20;;;;;;;;;4.33;4.00;;;;;19.15;63.20;101658.06;5059641;28;45362;-91
2021/08/11 05:31:46;;;;;;;;;5.00;5.00;;;;;19.16;63.14;101651.84;5079706;27;45477;-91
2021/08/11 05:34:12;;;;;;;;;6.33;6.00;;;;;19.15;63.24;101652.78;5059977;28;47288;-91
2021/08/11 05:36:37;;;;;;;;;5.00;5.00;;;;;19.17;63.79;101658.00;5073446;27;45559;-91
2021/08/11 05:39:03;;;;;;;;;5.67;5.00;;;;;19.21;63.64;101657.72;5098708;27;45673;-90
2021/08/11 05:41:29;;;;;;;;;4.67;4.00;;;;;19.25;63.32;101662.81;5079969;27;45483;-91
2021/08/11 05:43:55;;;;;;;;;8.00;6.00;;;;;19.25;63.56;101658.38;5060066;28;47249;-91
2021/08/11 05:46:20;;;;;;;;;6.33;5.00;;;;;19.29;63.74;101664.31;5070874;27;45463;-91
2021/08/11 05:48:45;;;;;;;;;5.00;5.00;;;;;19.32;63.27;101667.66;5077665;27;45701;-90
2021/08/11 05:51:13;;;;;;;;;4.33;4.00;;;;;19.30;63.63;101658.97;5071542;27;45467;-90
2021/08/11 05:53:39;;;;;;;;;8.33;7.00;;;;;19.35;63.39;101667.47;5080328;27;46782;-91
2021/08/11 05:56:04;;;;;;;;;5.67;5.67;;;;;19.34;63.51;101662.25;5097450;27;45444;-90
2021/08/11 05:58:30;;;;;;;;;6.33;5.33;;;;;19.35;63.42;101664.00;5080134;27;45300;-91
2021/08/11 06:00:58;;;;;;;;;6.00;6.00;;;;;19.41;63.52;101668.91;5080778;27;45489;-91
2021/08/11 06:03:23;;;;;;;;;7.00;5.00;;;;;19.42;63.81;101675.00;5080209;27;48019;-91
2021/08/11 06:05:49;;;;;;;;;6.00;6.00;;;;;19.44;63.68;101679.25;5066186;28;45351;-91
2021/08/11 06:08:14;;;;;;;;;6.33;5.00;;;;;19.48;63.63;101685.22;5083380;27;45185;-91
2021/08/11 06:10:39;;;;;;;;;6.33;4.00;;;;;19.52;63.79;101680.63;5060043;28;45450;-91
2021/08/11 06:13:05;;;;;;;;;5.00;5.00;;;;;19.49;63.79;101676.38;5076997;28;46928;-91
2021/08/11 06:15:30;;;;;;;;;5.33;5.33;;;;;19.56;63.55;101682.97;5069432;27;45297;-91
2021/08/11 06:17:56;;;;;;;;;4.67;4.67;;;;;19.59;63.54;101687.22;5066440;27;45601;-91
2021/08/11 06:20:22;;;;;;;;;5.67;5.67;;;;;19.61;63.81;101682.69;5078033;27;45262;-91
2021/08/11 06:22:48;;;;;;;;;4.67;4.67;;;;;19.65;63.58;101688.63;5059717;28;48436;-90
2021/08/11 06:25:14;;;;;;;;;7.00;6.67;;;;;19.71;63.81;101690.91;5078299;27;45533;-91
2021/08/11 06:27:41;;;;;;;;;7.00;6.00;;;;;19.74;63.69;101682.81;5078402;27;45248;-91
2021/08/11 06:30:07;;;;;;;;;8.00;8.00;;;;;19.77;63.91;101687.94;5059429;28;45389;-91
2021/08/11 06:32:33;;;;;;;;;6.33;6.33;;;;;19.77;63.89;101687.94;5079354;27;47095;-91
2021/08/11 06:34:59;;;;;;;;;9.67;6.33;;;;;19.84;63.53;101689.25;5098166;27;45368;-90
2021/08/11 06:37:24;;;;;;;;;6.00;6.00;;;;;19.88;63.36;101697.84;5079046;27;45411;-91
2021/08/11 06:39:50;;;;;;;;;7.67;6.33;;;;;19.92;63.74;101702.00;5086594;27;45279;-91
2021/08/11 06:42:15;;;;;;;;;6.00;5.33;;;;;19.93;63.57;101692.25;5097946;27;46294;-91
2021/08/11 06:44:41;;;;;;;;;6.67;5.00;;;;;20.00;63.55;101694.47;5088338;27;45273;-91
2021/08/11 06:47:06;;;;;;;;;5.67;4.00;;;;;20.03;63.60;101696.94;5059670;28;45732;-90
2021/08/11 06:49:32;;;;;;;;;5.00;3.00;;;;;20.06;63.68;101693.25;5068091;27;45389;-90
2021/08/11 06:51:59;;;;;;;;;4.67;4.67;;;;;20.06;63.42;101687.97;5085369;27;46568;-91
2021/08/11 06:54:24;;;;;;;;;4.00;3.67;;;;;20.11;63.19;101685.91;5072451;28;45432;-91
2021/08/11 06:56:49;;;;;;;;;5.33;4.00;;;;;20.19;63.67;101693.38;5072499;27;45450;-91
2021/08/11 06:59:15;;;;;;;;;8.00;4.00;;;;;20.21;63.13;101699.38;5076020;27;45681;-90
2021/08/11 07:01:40;;;;;;;;;5.33;5.00;;;;;20.26;62.88;101694.66;5069548;27;48190;-91
2021/08/11 07:04:06;;;;;;;;;7.33;5.33;;;;;20.31;62.92;101696.19;5096253;27;45389;-91
2021/08/11 07:06:32;;;;;;;;;5.00;4.67;;;;;20.34;63.24;101699.47;5080517;27;45497;-91
2021/08/11 07:08:57;;;;;;;;;5.00;5.00;;;;;20.41;63.08;101697.31;5059622;27;45528;-91
2021/08/11 07:11:23;;;;;;;;;3.67;3.67;;;;;20.39;62.87;101694.75;5073129;28;47113;-91
2021/08/11 07:13:49;;;;;;;;;5.33;5.33;;;;;20.46;63.39;101692.56;5097028;27;45362;-92
2021/08/11 07:16:14;;;;;;;;;6.67;6.00;;;;;20.50;63.11;101703.81;5081589;27;45306;-91
2021/08/11 07:18:40;;;;;;;;;6.00;5.00;;;;;20.50;63.32;101690.59;5088791;27;45376;-92
2021/08/11 07:21:05;;;;;;;;;6.00;6.00;;;;;20.54;63.19;101689.44;5058978;27;47101;-91
2021/08/11 07:23:31;;;;;;;;;6.67;6.67;;;;;20.55;63.09;101692.00;5058729;28;45709;-91
2021/08/11 07:25:56;;;;;;;;;6.67;6.67;;;;;20.61;62.69;101703.97;5058889;28;45355;-91
2021/08/11 07:28:21;;;;;;;;;7.33;6.00;;;;;20.63;62.58;101701.22;5071506;27;45330;-91
2021/08/11 07:30:47;;;;;;;;;7.00;5.00;;;;;20.67;62.69;101700.09;5079025;27;46876;-91
2021/08/11 07:33:12;;;;;;;;;5.00;3.67;;;;;20.68;62.70;101700.00;5064647;28;45463;-91
2021/08/11 07:35:39;;;;;;;;;4.00;4.00;;;;;20.74;62.81;101704.03;5072407;27;45636;-91
2021/08/11 07:38:05;;;;;;;;;4.00;4.00;;;;;20.78;62.34;101705.53;5071486;27;45479;-91
2021/08/11 07:40:31;;;;;;;;;4.67;4.00;;;;;20.83;62.05;101724.59;5058119;28;48374;-90
2021/08/11 07:42:58;;;;;;;;;4.00;3.00;;;;;20.87;62.23;101717.34;5082786;27;45720;-91
2021/08/11 07:45:26;;;;;;;;;5.33;5.33;;;;;20.93;62.26;101719.59;5087309;27;45471;-90
2021/08/11 07:47:53;;;;;;;;;3.33;3.33;;;;;20.99;61.98;101720.16;5087303;27;45242;-90
2021/08/11 07:50:21;;;;;;;;;4.00;4.00;;;;;21.05;61.83;101725.03;5074671;27;47176;-89
2021/08/11 07:52:47;;;;;;;;;4.67;4.67;;;;;21.05;60.64;101720.59;5058669;27;45333;-90
2021/08/11 07:55:14;;;;;;;;;4.67;4.00;;;;;21.09;60.70;101722.09;5079934;27;45372;-90
2021/08/11 07:57:39;;;;;;;;;4.00;4.00;;;;;21.16;60.52;101719.88;5061822;28;45308;-90
2021/08/11 08:00:07;;;;;;;;;7.33;4.67;;;;;21.18;60.18;101715.34;5075771;27;47028;-90
2021/08/11 08:02:32;;;;;;;;;5.00;4.00;;;;;21.24;60.66;101719.38;5079507;27;45253;-91
2021/08/11 08:04:58;;;;;;;;;3.00;3.00;;;;;21.29;60.54;101708.50;5076155;27;45313;-91
2021/08/11 08:07:23;;;;;;;;;6.00;5.00;;;;;21.33;60.35;101705.56;5088791;27;46618;-90
2021/08/11 08:09:49;;;;;;;;;5.33;4.67;;;;;21.37;60.49;101703.53;5084566;27;46093;-90
2021/08/11 08:12:15;;;;;;;;;4.00;4.00;;;;;21.42;59.58;101695.31;5062176;28;45431;-91
2021/08/11 08:14:40;;;;;;;;;4.00;4.00;;;;;21.40;59.56;101689.25;5061206;28;45624;-90
2021/08/11 08:17:05;;;;;;;;;5.67;5.00;;;;;21.45;59.97;101695.94;5075169;27;44909;-90
2021/08/11 08:19:31;;;;;;;;;3.67;3.67;;;;;21.48;59.50;101694.91;5060341;28;46936;-90
2021/08/11 08:21:56;;;;;;;;;3.67;3.33;;;;;21.54;59.50;101693.63;5089727;27;45416;-90
2021/08/11 08:24:22;;;;;;;;;3.33;3.00;;;;;21.57;58.92;101694.25;5063224;28;45852;-91
2021/08/11 08:26:48;;;;;;;;;3.33;3.00;;;;;21.57;59.72;101681.00;5061848;28;45386;-88
2021/08/11 08:29:13;;;;;;;;;4.33;4.00;;;;;21.65;59.27;101683.13;5092562;27;45315;-91
2021/08/11 08:31:39;;;;;;;;;4.67;4.00;;;;;21.69;59.50;101686.41;5063868;27;45592;-91
2021/08/11 08:34:04;;;;;;;;;4.00;4.00;;;;;21.76;59.23;101683.28;5081056;27;45365;-91
2021/08/11 08:36:30;;;;;;;;;4.00;4.00;;;;;21.81;59.36;101696.22;5062369;28;45366;-91
2021/08/11 08:38:58;;;;;;;;;4.33;3.00;;;;;21.92;59.43;101699.91;5061323;28;46855;-91
2021/08/11 08:41:24;;;;;;;;;5.00;4.33;;;;;21.96;58.43;101696.97;5064769;27;45419;-91
2021/08/11 08:43:50;;;;;;;;;5.00;5.00;;;;;21.97;58.65;101690.72;5078026;27;45390;-92
2021/08/11 08:46:16;;;;;;;;;5.00;3.00;;;;;22.07;58.29;101701.50;5074568;28;45455;-90
2021/08/11 08:48:42;;;;;;;;;4.33;4.33;;;;;22.10;58.25;101696.00;5061316;28;47972;-91
2021/08/11 08:51:12;;;;;;;;;4.00;3.67;;;;;22.14;58.24;101691.31;5060737;28;45474;-91
2021/08/11 08:53:44;;;;;;;;;5.33;5.00;;;;;22.18;57.85;101697.25;5085754;27;45640;-91
2021/08/11 08:56:10;;;;;;;;;2.67;2.67;;;;;22.20;57.61;101695.34;5096685;27;45291;-91
2021/08/11 08:58:38;;;;;;;;;3.33;3.00;;;;;22.17;57.29;101688.44;5061067;28;48350;-92
2021/08/11 09:01:04;;;;;;;;;4.00;2.67;;;;;22.20;57.66;101690.03;5060852;28;45586;-93
2021/08/11 09:03:29;;;;;;;;;3.33;3.00;;;;;22.26;57.49;101694.94;5077608;28;45432;-89
2021/08/11 09:05:55;;;;;;;;;3.33;3.33;;;;;22.27;56.73;101693.97;5061314;28;45483;-91
2021/08/11 09:08:20;;;;;;;;;4.00;3.00;;;;;22.39;56.86;101695.72;5092288;27;45529;-91
2021/08/11 09:10:46;;;;;;;;;4.00;3.67;;;;;22.46;57.16;101705.91;5099607;27;44828;-91
2021/08/11 09:13:20;;;;;;;;;6.00;3.33;;;;;22.51;57.22;101690.50;5081183;27;45341;-91
2021/08/11 09:15:53;;;;;;;;;3.00;3.00;;;;;22.52;56.52;101685.13;5092154;27;45451;-91
2021/08/11 09:18:29;;;;;;;;;6.00;4.00;;;;;22.57;56.59;101695.41;5066958;27;48230;-91
2021/08/11 09:21:03;;;;;;;;;4.33;3.33;;;;;22.55;56.68;101692.84;5080824;27;45531;-92
2021/08/11 09:23:36;;;;;;;;;5.00;4.00;;;;;22.57;56.41;101694.56;5086294;27;45481;-91
2021/08/11 09:26:04;;;;;;;;;5.67;4.67;;;;;22.55;56.58;101686.72;5060596;28;45338;-90
2021/08/11 09:28:32;;;;;;;;;3.33;3.33;;;;;22.57;56.55;101687.44;5064395;27;48149;-91
2021/08/11 09:30:58;;;;;;;;;4.00;4.00;;;;;22.58;57.06;101675.03;5074075;27;45603;-91
2021/08/11 09:33:24;;;;;;;;;4.67;3.67;;;;;22.68;56.96;101678.72;5074239;27;45493;-91
2021/08/11 09:35:51;;;;;;;;;3.67;3.67;;;;;22.78;56.63;101674.41;5070360;27;45345;-91
2021/08/11 09:38:17;;;;;;;;;4.00;2.67;;;;;22.89;56.73;101670.97;5059710;27;47162;-90
2021/08/11 09:40:43;;;;;;;;;3.33;3.33;;;;;23.05;56.81;101681.28;5080450;27;45397;-91
2021/08/11 09:43:15;;;;;;;;;3.67;3.00;;;;;23.23;56.42;101683.53;5079886;27;45355;-91
2021/08/11 09:45:56;;;;;;;;;3.00;3.00;;;;;23.40;56.26;101684.09;5080968;27;45471;-91
2021/08/11 09:48:39;;;;;;;;;3.67;3.67;;;;;23.58;55.72;101681.84;5080339;27;45580;-92
2021/08/11 09:51:06;;;;;;;;;3.33;2.33;;;;;23.77;55.79;101683.94;5079127;27;45527;-90
2021/08/11 09:53:32;;;;;;;;;3.00;1.33;;;;;23.99;55.30;101685.78;5072760;27;45427;-92
2021/08/11 09:56:05;;;;;;;;;2.67;2.67;;;;;24.19;55.68;101686.03;5096802;27;45560;-91
2021/08/11 09:58:38;;;;;;;;;2.33;2.00;;;;;24.40;55.44;101687.94;4994721;28;47266;-91
2021/08/11 10:01:24;;;;;;;;;2.67;2.67;;;;;24.63;53.88;101690.56;5039754;28;45503;-92
2021/08/11 10:04:05;;;;;;;;;3.00;3.00;;;;;24.76;53.09;101685.09;5037179;28;45475;-91
2021/08/11 10:06:40;;;;;;;;;4.33;2.67;;;;;24.84;52.92;101680.00;5032588;28;45504;-93
2021/08/11 10:09:26;;;;;;;;;1.00;1.00;;;;;24.97;53.25;101686.97;5052119;28;48293;-91
2021/08/11 10:11:54;;;;;;;;;2.67;2.67;;;;;25.05;52.70;101679.19;5029411;28;45554;-92
2021/08/11 10:14:22;;;;;;;;;3.67;3.00;;;;;25.20;53.11;101675.25;5028273;28;45392;-91
2021/08/11 10:16:48;;;;;;;;;3.00;3.00;;;;;25.33;52.40;101669.72;5041501;28;45492;-91
2021/08/11 10:19:15;;;;;;;;;3.00;3.00;;;;;25.46;52.39;101669.50;5054992;28;45375;-91
2021/08/11 10:21:47;;;;;;;;;3.67;3.33;;;;;25.60;51.67;101670.19;5052175;28;45680;-91
2021/08/11 10:24:13;;;;;;;;;4.00;4.00;;;;;25.71;51.37;101670.13;5051007;28;45493;-91
2021/08/11 10:26:38;;;;;;;;;3.33;1.33;;;;;25.93;51.40;101676.25;5044783;28;45469;-92
2021/08/11 10:29:06;;;;;;;;;4.00;4.00;;;;;26.10;51.45;101672.09;5035876;28;47062;-90
2021/08/11 10:31:32;;;;;;;;;3.00;3.00;;;;;26.32;50.84;101664.88;5019217;28;45379;-91
2021/08/11 10:34:00;;;;;;;;;2.67;2.67;;;;;26.55;49.32;101668.16;5037684;28;45457;-91
2021/08/11 10:36:31;;;;;;;;;3.00;3.00;;;;;26.68;49.35;101673.25;5057469;28;45417;-92
2021/08/11 10:38:59;;;;;;;;;2.00;2.00;;;;;26.81;49.01;101662.28;5038261;28;47238;-92
2021/08/11 10:41:34;;;;;;;;;4.67;4.67;;;;;26.98;48.62;101669.75;5057034;28;45325;-92
2021/08/11 10:44:01;;;;;;;;;3.00;2.67;;;;;27.13;48.43;101664.84;5038976;28;45266;-92
2021/08/11 10:46:45;;;;;;;;;3.00;3.00;;;;;27.34;48.02;101664.66;5032211;28;45473;-91
2021/08/11 10:49:17;;;;;;;;;2.00;2.00;;;;;27.53;47.33;101663.75;5040834;28;46952;-90
2021/08/11 10:51:47;;;;;;;;;2.33;2.33;;;;;27.84;47.64;101671.56;5038503;28;45417;-91
2021/08/11 10:54:13;;;;;;;;;4.33;4.33;;;;;28.06;46.97;101676.69;5028928;28;45370;-91
2021/08/11 10:56:46;;;;;;;;;5.00;4.33;;;;;28.06;46.00;101674.00;5047914;28;45522;-91
2021/08/11 10:59:24;;;;;;;;;4.33;3.00;;;;;28.00;46.34;101676.28;5054629;28;46589;-89
2021/08/11 11:01:50;;;;;;;;;2.33;2.33;;;;;27.92;45.90;101672.66;5036219;28;45171;-92
2021/08/11 11:04:46;;;;;;;;;5.00;3.00;;;;;27.80;45.90;101675.53;5035349;28;45358;-91
2021/08/11 11:07:13;;;;;;;;;4.00;4.00;;;;;27.70;45.70;101670.22;5047706;28;45321;-91
2021/08/11 11:09:40;;;;;;;;;2.00;2.00;;;;;27.58;45.98;101664.19;5050566;28;46587;-92
2021/08/11 11:12:19;;;;;;;;;4.00;4.00;;;;;27.43;44.89;101669.13;5029425;28;45889;-92
2021/08/11 11:15:00;;;;;;;;;2.00;2.00;;;;;27.27;45.73;101666.22;5061241;28;45494;-91
2021/08/11 11:17:30;;;;;;;;;4.33;2.67;;;;;27.29;46.60;101658.88;5054537;28;45412;-91
2021/08/11 11:20:08;;;;;;;;;3.33;3.33;;;;;27.44;46.36;101659.31;5024437;28;48452;-91
2021/08/11 11:22:56;;;;;;;;;3.00;3.00;;;;;27.63;46.35;101653.06;5026656;28;45667;-92
2021/08/11 11:25:56;;;;;;;;;6.33;4.00;;;;;27.85;46.04;101649.19;5019946;28;45916;-92
2021/08/11 11:29:01;;;;;;;;;4.00;4.00;;;;;28.08;45.82;101639.91;5038825;28;45549;-91